Terminal Aerodrome Forecast
Issued by NWS

Home | Current Version | Previous Version | Text Only | Print | Product List | Glossary On
Versions: 1 2 3 4 5 6 7 8 9 10 11 12 13 14 15
645
FTUS43 KMQT 221442 AAB
TAFIWD
TAF AMD
KIWD 221442Z 2215/2312 VRB03KT P6SM VCSH BKN100
      TEMPO 2215/2218 4SM BR BKN010
     FM221800 VRB03KT 4SM -SHRA OVC015
     FM222100 03003KT 3SM -SHRA OVC008
     FM230000 01006KT 1SM -SHRA OVC003
     FM230300 02008KT 1 1/2SM -SHSN OVC003
     FM230700 01010KT 3SM -FZDZ OVC003=

USA.gov is the U.S. government's official web portal to all federal, state and local government web resources and services.